Racecast

Colby Reaume

Temperance Bedford (MI) · 12 · SECMI D1MONROE · Compare head to head

Athlete rating 99.1 2021 XC season
Best race 121.5 XC
Races 39
Seasons 6 2015 — 2021

RankedNation #112521·OH #5488·Team #107 ?

Rating scale ?

Cross Country

2021 XC 99.8

Temperance Bedford (MI) · Grade 12

Date Meet Event Result Place Rating Difficulty PR/SR Flags
2021-09-28 Munson Park 5000m +0.054 CSR
2021-08-28 Walsh Park 5000m 21:30.3 23rd · 6th on team 99.8 -0.009 ★CR SR CSR RSR

2020 XC 118.6

Temperance Bedford (MI) · Grade 11

Date Meet Event Result Place Rating Difficulty PR/SR Flags
2020-10-03 Indian Creek OFFICIAL 5000m 18:15 11th · 6th on team 121.5 +0.039 ★CR ★R CSR RSR
2020-09-26 Indian Creek OFFICIAL 5000m 18:44.6 25th · 7th on team 120.9 +0.039 R RSR
2020-09-19 Indian Creek OFFICIAL 5000m 18:37 5th · 5th on team 119.0 +0.039 CR R CSR RSR
2020-09-12 Whiteford Valley Golf Club 5000m 18:08.4 6th · 6th on team 116.4 -0.023 ★PR ★CR R SR CSR RSR
2020-08-29 Indian Creek OFFICIAL 5000m 19:26 10th · 7th on team 115.2 +0.039 PR CR R SR CSR RSR

2019 XC 101.1

Temperance Bedford (MI) · Grade 10

Date Meet Event Result Place Rating Difficulty PR/SR Flags
2019-10-26 Lake Erie Metro Park OFFICIAL 5000m 21:10.6 125th · 12th on team 106.0 +0.055 SR CSR RSR
2019-10-17 Hudson Mills Metropark - OFFICIAL 5000m 21:38.5 212th · 13th on team 102.0 +0.036 ★CR CSR
2019-10-12 Munson Park 5000m 21:26.3 40th · 9th on team 104.7 +0.054 SR CSR RSR
2019-10-05 Portage West MS 5000m 21:35.4 507th · 11th on team 101.9 +0.038 ★CR SR CSR RSR
2019-09-28 Lake Erie Metro Park OFFICIAL 5000m 23:02.2 161st · 12th on team 96.8 +0.055 CSR
2019-09-24 Indian Creek OFFICIAL 5000m 21:54.3 120th · 8th on team 101.8 +0.039 SR CSR RSR
2019-09-10 Hudson Mills Metropark - OFFICIAL 5000m 23:15.7 165th · 11th on team 94.3 +0.036 CR SR CSR RSR

2018 XC 104.6

Temperance Bedford (MI) · Grade 9

Date Meet Event Result Place Rating Difficulty PR/SR Flags
2018-10-13 Munson Park 5000m 20:11.8 28th · 8th on team 110.5 +0.054 PR ★CR R SR CSR RSR
2018-10-09 Indian Creek OFFICIAL 5000m 21:10 22nd · 16th on team 106.3 +0.039 CR CSR
2018-10-06 Portage West MS 5000m 21:37.4 459th · 17th on team 102.5 +0.038 CR CSR
2018-09-29 Lake Erie Metro Park OFFICIAL 5000m 20:43.8 128th · 17th on team 108.3 +0.055 PR ★CR R SR CSR RSR
2018-09-25 Cass Benton Park OFFICIAL 5000m 22:49.9 110th · 15th on team 101.5 +0.091 ★CR CSR
2018-09-06 Willow Metropark OFFICIAL 5000m 21:38.2 143rd · 13th on team 102.3 +0.048 PR ★CR R SR CSR RSR
2018-08-31 Oakland University 4000m 17:30.5 118th · 15th on team 100.9 +0.054 ★PR ★CR SR CSR RSR

2016 XC 90.0

Temperance Bedford (MI) · Grade 7

Date Meet Event Result Place Rating Difficulty PR/SR Flags
2016-10-15 Munson Park 3200m 16:38.5 88th · 27th on team 101.9 +0.034 ★PR ★CR R SR CSR RSR
2016-10-12 Heritage Park (Adrian) OFFICIAL 3218m 18:15.8 177th · 35th on team 93.8 +0.046 ★CR CSR
2016-10-08 Monroe County Comm College 3218m 17:15.1 86th · 25th on team 95.6 +0.007 ★PR ★CR R SR CSR RSR
2016-10-01 Pearson's Metro Park 3000m 19:13.1 181st · 25th on team 79.3 ★CR CSR
2016-09-28 Hudson Mills Metropark - OFFICIAL 3218m 18:27.1 199th · 32nd on team 94.5 +0.062 PR ★CR R SR CSR RSR
2016-09-14 Rolling Hills 3000m 18:50.6 151st · 35th on team 86.5 +0.071 ★PR ★CR SR CSR RSR
2016-09-10 Hedges Boyer Park 3200m 19:02.5 47th · 15th on team 78.7 -0.089 PR ★CR SR CSR RSR

2015 XC 91.3

Temperance Bedford (MI) · Grade 6

Date Meet Event Result Place Rating Difficulty PR/SR Flags
2015-10-14 Munson Park 2000m 11:24.6 37th · 16th on team 93.0 +0.073 ★PR ★CR R SR CSR RSR
2015-09-26 Sterling State Park 1850m +0.113 ★PR ★CR SR CSR
2015-09-16 Mill Pond Park 2414m 15:16.9 42nd · 14th on team 89.6 +0.127 ★PR ★CR R SR CSR RSR

Track & Field

2021 TF 102.8

Temperance Bedford (MI) · Grade 11

Date Meet Event Result Place Rating Difficulty PR/SR Flags
2021-05-04 SEC-HS: Bedford at Monroe 800m 2:26.85 7th · 4th on team 104.1 -0.032 ★PR SR
2021-04-24 Warrior Classic 1600m 5:28.39 14th · 2nd on team 104.1 -0.029 ★PR SR RSR
2021-04-22 SEC-HS: AA Huron, Saline at Bedford 1600m 5:33.26 22nd · 4th on team 102.4 -0.034 PR SR RSR
2021-04-09 Whitmer Gold W Invitational 800m 2:31.57 8th · 1st on team 100.5 -0.040 PR SR RSR

2019 TF 89.1

Temperance Bedford (MI) · Grade 9

Date Meet Event Result Place Rating Difficulty PR/SR Flags
2019-05-23 Freshman Beck Invitational 800m 2:40 3rd · 2nd on team 96.9 -0.022 PR SR RSR
2019-05-15 Eagle Invite 800m 2:47.01 52nd · 6th on team 91.3 -0.033 PR SR RSR
2019-03-23 Bedford @ Ida Scrimmage 800m 3:09.16 20th · 13th on team 81.5 -0.022 PR SR RSR
2019-03-23 Bedford @ Ida Scrimmage 1600m 6:39.53 22nd · 17th on team 86.7 -0.022 PR SR RSR